NCAR-RAP Real-Time Weather Data

Output produced by METARs form (08 May 2021  16:08 UTC)
found at http://weather.rap.ucar.edu/surface/
 
KMIA 081553Z 08014G17KT 10SM BKN043 BKN250 29/17 A3008 RMK AO2 SLP186 T02890172 $
KMIA 081453Z COR 08014G19KT 10SM BKN041 BKN250 29/18 A3008 RMK AO2 SLP185 T02940183 51015 $
KMIA 081353Z 07011KT 10SM BKN035 BKN250 28/19 A3007 RMK AO2 SLP182 T02780194 $
KMIA 081253Z 06009KT 10SM FEW035 SCT250 27/21 A3005 RMK AO2 SLP176 T02670211 $
KMIA 081243Z 03007KT 10SM SCT035 SCT250 27/21 A3005 RMK AO2 T02670211 $
KMIA 081153Z 36003KT 10SM BKN029 BKN040 24/21 A3003 RMK AO2 SLP170 70019 T02390211 10250 20233 53016 $
KMIA 081053Z 33005KT 10SM BKN029 BKN043 23/21 A3001 RMK AO2 SLP162 T02330211 $
KMIA 080953Z 34004KT 10SM BKN025 BKN030 24/22 A2999 RMK AO2 SLP157 T02390217 $
KMIA 080945Z 33005KT 10SM BKN025 BKN030 24/22 A2999 RMK AO2 T02390217 $
KMIA 080853Z 34004KT 10SM SCT022 BKN035 24/22 A2998 RMK AO2 SLP154 T02390222 55010 $
KMIA 080753Z 33005KT 10SM FEW025 FEW050 24/22 A2998 RMK AO2 SLP150 T02390222 $
KMIA 080653Z 00000KT 10SM SCT034 24/22 A2999 RMK AO2 SLP154 T02390222 $
KMIA 080553Z 04003KT 10SM FEW020 FEW050 24/22 A3002 RMK AO2 SLP164 60019 T02390217 10256 20233 58006
KMIA 080453Z 05004KT 10SM FEW020 24/21 A3002 RMK AO2 SLP167 T02390211 403390233
KMIA 080353Z 07003KT 10SM FEW070 24/21 A3003 RMK AO2 SLP169 T02390211
KMIA 080253Z 09006KT 10SM FEW024 FEW060 24/21 A3003 RMK AO2 LTG DSNT NE RAE0156 SLP170 FRQ LTGIC DSNT NE-SE CB DSNT NE-SE P0000 60019 T02390211 51019
KMIA 080207Z 06004KT 10SM FEW024 BKN050 BKN070 23/21 A3003 RMK AO2 LTG DSNT NE AND E RAE0156 FRQ LTGIC DSNT NE-SE CB DSNT NE-SE P0000 T02330211
KMIA 080153Z 00000KT 10SM -RA BKN024 BKN050 OVC070 23/22 A3003 RMK AO2 LTG DSNT N-E RAB07 SLP169 FRQ LTGIC DSNT NE-SE CB DSNT NE-SE MOV E P0019 T02330217
KMIA 080102Z 12008KT 10SM BKN018 BKN029 OVC050 25/21 A3001 RMK AO2 LTG DSNT E AND SE OCNL LTGIC DSNT E-S CB DSNT E-S MOV SE T02500206
KMIA 080053Z 12008KT 10SM VCTS BKN018 BKN029 OVC050 25/21 A3000 RMK AO2 LTG DSNT E-S TSE2355B2356E50 SLP159 OCNL LTGIC DSNT E-S CB DSNT E-S MOV SE T02500206
KMIA 080051Z 13009KT 10SM VCTS BKN018 BKN029 OVC050 25/20 A3000 RMK AO2 LTG DSNT E-S TSE2355B2356E50 OCNL LTGIC DSNT E-S CB DSNT E-S MOV SE
KMIA 080041Z 11012KT 10SM TS BKN018CB BKN029 OVC060 25/21 A3000 RMK AO2 LTG DSNT SE TSE2355B2356 OCNL LTGIC E-S TS E-S MOV SE CB SW-W MOV SE T02500211
KMIA 072356Z COR 07013KT 10SM TS FEW017CB SCT035 BKN070 25/22 A2998 RMK AO2 LTG DSNT ALQDS TSE55B56 OCNL LTGICCG SE-SW TS SE-SW MOV SE CB DSNT NE-SE MOV SE T02500222
KMIA 072353Z 07011KT 9SM FEW017CB SCT035 BKN060 25/22 A2998 RMK AO2 LTG DSNT E-S TSE18B38E53 SLP151 OCNL LTGICCG SE-SW TS SE-SW MOV SE CB DSNT NE-SE MOV SE 60000 T02500222 10339 20250 53019
KMIA 072341Z 06012KT 10SM TS FEW020CB SCT035 BKN065 25/22 A2998 RMK AO2 LTG DSNT E-S TSE18B38 OCNL LTGICCG SE-SW TS SE-SW MOV SE CB DSNT NE-SE MOV SE T02500222
KMIA 072319Z 07008KT 9SM FEW020CB SCT035 BKN065 25/22 A2997 RMK AO2 LTG DSNT E AND SE TSE18 CB N-NE AND SW MOV SE CB DSNT NE-SE-S MOV SE T02500222
KMIA 072253Z 06013KT 10SM TS FEW025CB SCT035 BKN065 BKN200 26/22 A2996 RMK AO2 LTG DSNT E AND SE TSE10B13 SLP146 OCNL LTGICCG NW-NE TS NW-NE MOV E CB DSNT E-SE MOV E T02560222
KMIA 072213Z 03009KT 10SM TS FEW025CB SCT055 BKN080 BKN200 27/22 A2994 RMK AO2 LTG DSNT ALQDS TSE10B13 OCNL LTGICCG NW-NE TS NW-NE MOV E T02670217
KMIA 072153Z 09013KT 10SM FEW020 SCT035 BKN055 BKN200 27/21 A2993 RMK AO2 LTG DSNT N-SE TSE49 SLP136 CB DSNT N-NE AND E-SE MOV E T02720211
KMIA 072150Z 09012KT 10SM FEW020 SCT035 BKN060 BKN200 27/21 A2993 RMK AO2 LTG DSNT N-SE TSE49 CB DSNT N-NE AND E-SE MOV E
KMIA 072053Z COR 12005KT 10SM TS FEW022CB BKN030 BKN070 BKN250 29/24 A2992 RMK AO2 LTG DSNT NE-SE RAB29E45 SLP133 OCNL LTGICCG NE-SE TS NE-SE MOV E CB NW MOV E P0000 60000 T02890239 56021
KMIA 071953Z 06005KT 10SM TS FEW030CB SCT055 BKN070 BKN250 33/19 A2994 RMK AO2 LTG DSNT E AND S AND NW TSB46 SLP139 OCNL LTGICCG E-SE TS E-SE MOV E CB DSNT NW MOV E T03280194
KMIA 071947Z 36007KT 10SM TS FEW030CB SCT055 BKN070 BKN250 33/20 A2994 RMK AO2 LTG DSNT E AND S AND NW TSB46 OCNL LTGICCG E-SE TS E-SE MOV E CB DSNT NW MOV E
KMIA 071853Z VRB03KT 10SM SCT055 SCT250 33/20 A2996 RMK AO2 SLP145 T03280200
KMIA 071753Z 25007KT 10SM SCT043 SCT250 32/21 A2998 RMK AO2 SLP153 T03220206 10328 20250 58013
KMIA 071653Z VRB06KT 10SM SCT036 SCT250 32/21 A3000 RMK AO2 SLP160 T03220206
KMIA 071553Z 26008KT 10SM SCT034 SCT250 31/22 A3002 RMK AO2 SLP165 T03060217
KMIA 071453Z VRB06KT 10SM FEW028 BKN250 29/22 A3002 RMK AO2 SLP167 T02940222 58001
KMIA 071413Z 31008KT 10SM SCT019 BKN250 28/23 A3002 RMK AO2 T02830228
KMIA 071353Z VRB06KT 10SM BKN018 BKN250 28/23 A3003 RMK AO2 SLP167 T02830233
KMIA 071351Z 32007KT 10SM BKN018 BKN250 28/23 A3003 RMK AO2
KMIA 071253Z 28005KT 10SM FEW025 FEW090 SCT250 27/23 A3003 RMK AO2 SLP168 T02670233
KMIA 071153Z 27004KT 10SM FEW025 FEW090 SCT250 25/23 A3001 RMK AO2 SLP163 70066 T02500228 10256 20244 53014 $
KMIA 071053Z 26003KT 10SM FEW200 24/23 A2999 RMK AO2 SLP155 T02440228 $
KMIA 070953Z 30005KT 7SM FEW200 24/23 A2999 RMK AO2 SLP155 T02440228 $
KMIA 070853Z 28004KT 8SM FEW250 24/23 A2997 RMK AO2 SLP149 T02440233 55008 $
KMIA 070753Z 23003KT 10SM SCT250 24/23 A2996 RMK AO2 SLP146 T02440233 $
KMIA 070653Z 23004KT 10SM SCT250 25/23 A2997 RMK AO2 SLP149 T02500228 $
KMIA 070553Z 21003KT 10SM SCT250 25/23 A2999 RMK AO2 SLP157 60000 T02500228 10261 20217 58015 $
KMIA 070453Z 17003KT 10SM FEW045 26/22 A3002 RMK AO2 SLP164 T02560222 403280217 $
KMIA 070353Z 13003KT 10SM FEW045 FEW250 26/22 A3003 RMK AO2 SLP170 T02560222 $
KMIA 070253Z 00000KT 10SM FEW035 FEW045 FEW080 26/22 A3004 RMK AO2 LTG DSNT E SLP172 60000 T02610222 51011 $
KMIA 070153Z VRB05KT 10SM FEW020 BKN030 BKN060 24/22 A3004 RMK AO2 LTG DSNT E TSE26B35E50 SLP172 CB NE-E MOV E T02440217 $
KMIA 070137Z 20004KT 10SM TS FEW020CB BKN030 BKN060 24/21 A3003 RMK AO2 LTG DSNT NE AND E TSE26B35 OCNL LTGICCG N-NE TS N-NE MOV E T02390211 $
KMIA 070126Z 17007KT 130V190 10SM FEW020CB BKN030 BKN060 23/21 A3003 RMK AO2 LTG DSNT NE TSE26 CB NW-NE MOV SE T02330206 $
KMIA 070053Z 17006G16KT 10SM TS FEW020CB BKN029 BKN060 BKN250 24/21 A3002 RMK AO2 LTG DSNT N AND NE AND S RAE22 SLP166 OCNL LTGICCG E-S TS E-S MOV SE P0000 T02390206 $
KMIA 062353Z 14008KT 5SM -TSRA BR BKN025CB BKN045 BKN110 OVC250 24/22 A3001 RMK AO2 LTG DSNT ALQDS RAB06 SLP161 FRQ LTGICCG OHD TS OHD MOV E P0066 60066 T02390217 10322 20233 53018 $
KMIA 062333Z COR 24007KT 5SM +TSRA BR SCT018CB BKN029 BKN075 OVC250 24/21 A2999 RMK FRQ LTGICCG OHD TS OHD MOV E P0061 T02440211
KMIA 062331Z 23008KT 2SM R09/1600VP6000FT +TSRA BR SCT018CB BKN029 BKN075 OVC250 24/21 A2999 RMK AO2 LTG DSNT NW-NE RAB06 FRQ LTGICCG OHD TS OHD MOV E P0061 T02390211 $
KMIA 062317Z VRB03G18KT 1SM R09/1800V4500FT +TSRA BR BKN018CB OVC043 24/21 A3000 RMK AO2 LTG DSNT ALQDS RAB06 FRQ LTGICCG OHD TS OHD MOV E P0023 T02390206 $
KMIA 062313Z VRB05G25KT 1 1/2SM R09/1800VP6000FT +TSRA BR SCT018 BKN025CB OVC070 24/21 A3000 RMK AO2 LTG DSNT ALQDS RAB06 PRESRR FRQ LTGICCG OHD TS OHD MOV E P0011 T02440206 $
KMIA 062310Z 33012G25KT 2SM R09/4000VP6000FT +TSRA BR BKN029CB BKN039 BKN065 OVC250 25/21 A2999 RMK AO2 LTG DSNT ALQDS RAB06 FRQ LTGICCG OHD TS OHD MOV E T02500211 PNO $
KMIA 062253Z 17004KT 10SM TS SCT035CB BKN070 BKN120 BKN250 29/23 A2997 RMK AO2 LTG DSNT W-NE RAB25E37 TSB38 PRESRR SLP148 FRQ LTGICCG OHD-W-N TS OHD-W-N MOV E P0000 T02940233 $
KMIA 062239Z 16010KT 10SM TS FEW035CB SCT070 SCT120 BKN250 29/23 A2995 RMK AO2 LTG DSNT W-N RAB25E37 TSB38 OCNL LTGICCG W-N TS W-N MOV E P0000 T02890233 $
KMIA 062153Z COR 17010KT 120V200 10SM FEW035CB FEW130 31/22 A2995 RMK AO2 LTG DSNT W SLP140 CB W-NW MOV E T03060217 $
KMIA 062053Z 14010G17KT 10SM FEW040TCU FEW150 32/22 A2995 RMK AO2 SLP142 TCU W T03220222 57021 $
KMIA 061953Z 13010KT 10SM FEW040TCU 32/22 A2997 RMK AO2 SLP150 TCU SW T03170222 $
KMIA 061853Z 12011KT 10SM FEW040 FEW110 32/22 A2999 RMK AO2 SLP156 TCU W T03220222 $
KMIA 061753Z 13010G17KT 10SM SCT038TCU 32/22 A3001 RMK AO2 SLP164 TCU W T03220222 10328 20272 58018 $
KMIA 061653Z 15008KT 10SM SCT038 32/22 A3003 RMK AO2 SLP170 T03170222 $